sensor_id;sensor_type;location;lat;lon;timestamp;P1;durP1;ratioP1;P2;durP2;ratioP2
14021;SDS011;7086;48.116;11.580;2022-08-04T00:01:20;2.53;;;1.42;;
14021;SDS011;7086;48.116;11.580;2022-08-04T00:03:56;1.27;;;1.27;;
14021;SDS011;7086;48.116;11.580;2022-08-04T00:06:32;1.88;;;1.77;;
14021;SDS011;7086;48.116;11.580;2022-08-04T00:09:15;6.30;;;1.30;;
14021;SDS011;7086;48.116;11.580;2022-08-04T00:11:52;1.45;;;1.35;;
14021;SDS011;7086;48.116;11.580;2022-08-04T00:14:26;1.52;;;1.42;;
14021;SDS011;7086;48.116;11.580;2022-08-04T00:17:02;1.50;;;1.40;;
14021;SDS011;7086;48.116;11.580;2022-08-04T00:19:40;2.03;;;1.25;;
14021;SDS011;7086;48.116;11.580;2022-08-04T00:22:13;1.58;;;1.35;;
14021;SDS011;7086;48.116;11.580;2022-08-04T00:24:48;1.38;;;1.30;;
14021;SDS011;7086;48.116;11.580;2022-08-04T00:27:17;1.65;;;1.40;;
14021;SDS011;7086;48.116;11.580;2022-08-04T00:29:45;1.40;;;1.30;;
14021;SDS011;7086;48.116;11.580;2022-08-04T00:32:13;1.63;;;1.52;;
14021;SDS011;7086;48.116;11.580;2022-08-04T00:34:42;1.38;;;1.25;;
14021;SDS011;7086;48.116;11.580;2022-08-04T00:37:11;1.50;;;1.40;;
14021;SDS011;7086;48.116;11.580;2022-08-04T00:39:41;1.40;;;1.30;;
14021;SDS011;7086;48.116;11.580;2022-08-04T00:42:32;1.40;;;1.30;;
14021;SDS011;7086;48.116;11.580;2022-08-04T00:45:15;1.50;;;1.40;;
14021;SDS011;7086;48.116;11.580;2022-08-04T00:48:18;2.08;;;1.02;;
14021;SDS011;7086;48.116;11.580;2022-08-04T00:51:07;1.40;;;1.40;;
14021;SDS011;7086;48.116;11.580;2022-08-04T00:53:53;2.25;;;1.77;;
14021;SDS011;7086;48.116;11.580;2022-08-04T00:56:36;1.65;;;1.10;;
14021;SDS011;7086;48.116;11.580;2022-08-04T00:59:28;1.45;;;1.40;;
14021;SDS011;7086;48.116;11.580;2022-08-04T01:02:16;3.63;;;1.40;;
14021;SDS011;7086;48.116;11.580;2022-08-04T01:04:57;1.10;;;1.10;;
14021;SDS011;7086;48.116;11.580;2022-08-04T01:07:48;1.73;;;1.13;;
14021;SDS011;7086;48.116;11.580;2022-08-04T01:10:39;1.70;;;1.60;;
14021;SDS011;7086;48.116;11.580;2022-08-04T01:13:27;2.90;;;1.30;;
14021;SDS011;7086;48.116;11.580;2022-08-04T01:16:26;1.40;;;1.40;;
14021;SDS011;7086;48.116;11.580;2022-08-04T01:18:58;1.35;;;1.33;;
14021;SDS011;7086;48.116;11.580;2022-08-04T01:21:39;1.80;;;1.70;;
14021;SDS011;7086;48.116;11.580;2022-08-04T01:24:46;1.73;;;1.60;;
14021;SDS011;7086;48.116;11.580;2022-08-04T01:27:45;1.52;;;1.25;;
14021;SDS011;7086;48.116;11.580;2022-08-04T01:30:35;1.65;;;1.15;;
14021;SDS011;7086;48.116;11.580;2022-08-04T01:33:12;1.60;;;1.50;;
14021;SDS011;7086;48.116;11.580;2022-08-04T01:35:43;1.50;;;1.30;;
14021;SDS011;7086;48.116;11.580;2022-08-04T01:38:17;1.58;;;1.40;;
14021;SDS011;7086;48.116;11.580;2022-08-04T01:40:56;1.88;;;1.35;;
14021;SDS011;7086;48.116;11.580;2022-08-04T01:43:31;2.72;;;1.60;;
14021;SDS011;7086;48.116;11.580;2022-08-04T01:46:02;1.30;;;1.30;;
14021;SDS011;7086;48.116;11.580;2022-08-04T01:48:30;2.35;;;1.60;;
14021;SDS011;7086;48.116;11.580;2022-08-04T01:51:02;1.83;;;1.30;;
14021;SDS011;7086;48.116;11.580;2022-08-04T01:53:33;1.50;;;1.38;;
14021;SDS011;7086;48.116;11.580;2022-08-04T01:56:03;2.17;;;1.38;;
14021;SDS011;7086;48.116;11.580;2022-08-04T01:58:33;1.10;;;1.10;;
14021;SDS011;7086;48.116;11.580;2022-08-04T02:01:04;2.20;;;1.45;;
14021;SDS011;7086;48.116;11.580;2022-08-04T02:03:35;1.55;;;1.45;;
14021;SDS011;7086;48.116;11.580;2022-08-04T02:06:07;1.30;;;1.30;;
14021;SDS011;7086;48.116;11.580;2022-08-04T02:08:50;1.25;;;1.25;;
14021;SDS011;7086;48.116;11.580;2022-08-04T02:11:29;1.60;;;1.50;;
14021;SDS011;7086;48.116;11.580;2022-08-04T02:14:00;2.20;;;1.83;;
14021;SDS011;7086;48.116;11.580;2022-08-04T02:17:03;1.55;;;1.45;;
14021;SDS011;7086;48.116;11.580;2022-08-04T02:19:41;1.60;;;1.50;;
14021;SDS011;7086;48.116;11.580;2022-08-04T02:22:26;1.40;;;1.30;;
14021;SDS011;7086;48.116;11.580;2022-08-04T02:24:57;1.35;;;1.35;;
14021;SDS011;7086;48.116;11.580;2022-08-04T02:27:33;1.40;;;1.30;;
14021;SDS011;7086;48.116;11.580;2022-08-04T02:30:24;1.10;;;1.10;;
14021;SDS011;7086;48.116;11.580;2022-08-04T02:33:02;1.85;;;1.75;;
14021;SDS011;7086;48.116;11.580;2022-08-04T02:35:34;1.60;;;1.50;;
14021;SDS011;7086;48.116;11.580;2022-08-04T02:38:15;1.38;;;1.27;;
14021;SDS011;7086;48.116;11.580;2022-08-04T02:40:53;1.77;;;1.20;;
14021;SDS011;7086;48.116;11.580;2022-08-04T02:43:24;1.40;;;1.40;;
14021;SDS011;7086;48.116;11.580;2022-08-04T02:45:55;2.10;;;1.42;;
14021;SDS011;7086;48.116;11.580;2022-08-04T02:48:25;1.58;;;1.48;;
14021;SDS011;7086;48.116;11.580;2022-08-04T02:50:57;1.52;;;1.42;;
14021;SDS011;7086;48.116;11.580;2022-08-04T02:53:27;1.65;;;1.55;;
14021;SDS011;7086;48.116;11.580;2022-08-04T02:55:57;1.08;;;1.08;;
14021;SDS011;7086;48.116;11.580;2022-08-04T02:58:29;1.95;;;1.63;;
14021;SDS011;7086;48.116;11.580;2022-08-04T03:01:01;1.75;;;1.65;;
14021;SDS011;7086;48.116;11.580;2022-08-04T03:03:33;2.00;;;1.90;;
14021;SDS011;7086;48.116;11.580;2022-08-04T03:09:25;1.30;;;1.30;;
14021;SDS011;7086;48.116;11.580;2022-08-04T03:12:34;1.92;;;1.83;;
14021;SDS011;7086;48.116;11.580;2022-08-04T03:15:37;1.70;;;1.60;;
14021;SDS011;7086;48.116;11.580;2022-08-04T03:18:50;1.52;;;1.38;;
14021;SDS011;7086;48.116;11.580;2022-08-04T03:22:17;1.83;;;1.73;;
14021;SDS011;7086;48.116;11.580;2022-08-04T03:25:23;1.70;;;1.60;;
14021;SDS011;7086;48.116;11.580;2022-08-04T03:28:31;1.52;;;1.42;;
14021;SDS011;7086;48.116;11.580;2022-08-04T03:31:53;1.30;;;1.30;;
14021;SDS011;7086;48.116;11.580;2022-08-04T03:35:13;2.35;;;1.40;;
14021;SDS011;7086;48.116;11.580;2022-08-04T03:38:23;1.48;;;1.48;;
14021;SDS011;7086;48.116;11.580;2022-08-04T03:41:26;1.40;;;1.30;;
14021;SDS011;7086;48.116;11.580;2022-08-04T03:44:25;2.45;;;1.20;;
14021;SDS011;7086;48.116;11.580;2022-08-04T03:54:16;1.35;;;1.27;;
14021;SDS011;7086;48.116;11.580;2022-08-04T03:57:28;1.80;;;1.70;;
14021;SDS011;7086;48.116;11.580;2022-08-04T04:00:38;1.83;;;1.67;;
14021;SDS011;7086;48.116;11.580;2022-08-04T15:03:44;1.42;;;1.10;;
14021;SDS011;7086;48.116;11.580;2022-08-04T15:36:43;0.80;;;0.80;;
14021;SDS011;7086;48.116;11.580;2022-08-04T15:39:37;1.00;;;0.95;;
14021;SDS011;7086;48.116;11.580;2022-08-04T15:42:29;1.00;;;1.00;;
14021;SDS011;7086;48.116;11.580;2022-08-04T15:54:41;1.02;;;0.80;;
14021;SDS011;7086;48.116;11.580;2022-08-04T15:57:14;2.80;;;1.23;;
14021;SDS011;7086;48.116;11.580;2022-08-04T16:00:03;1.00;;;1.00;;
14021;SDS011;7086;48.116;11.580;2022-08-04T16:02:46;2.15;;;1.10;;
14021;SDS011;7086;48.116;11.580;2022-08-04T16:05:36;4.20;;;3.97;;
14021;SDS011;7086;48.116;11.580;2022-08-04T16:08:20;2.40;;;1.73;;
14021;SDS011;7086;48.116;11.580;2022-08-04T16:14:15;2.08;;;1.20;;
14021;SDS011;7086;48.116;11.580;2022-08-04T16:17:16;0.98;;;0.98;;
14021;SDS011;7086;48.116;11.580;2022-08-04T16:20:02;0.77;;;0.77;;
14021;SDS011;7086;48.116;11.580;2022-08-04T16:22:54;0.80;;;0.80;;
14021;SDS011;7086;48.116;11.580;2022-08-04T16:25:42;1.20;;;0.95;;
14021;SDS011;7086;48.116;11.580;2022-08-04T16:31:13;1.10;;;1.10;;
14021;SDS011;7086;48.116;11.580;2022-08-04T16:34:23;1.10;;;1.10;;
14021;SDS011;7086;48.116;11.580;2022-08-04T16:37:18;1.20;;;1.20;;
14021;SDS011;7086;48.116;11.580;2022-08-04T16:43:17;1.45;;;1.08;;
14021;SDS011;7086;48.116;11.580;2022-08-04T16:46:07;4.40;;;1.10;;
14021;SDS011;7086;48.116;11.580;2022-08-04T16:49:13;1.05;;;1.05;;
14021;SDS011;7086;48.116;11.580;2022-08-04T16:51:52;1.13;;;1.00;;
14021;SDS011;7086;48.116;11.580;2022-08-04T16:54:57;2.05;;;1.40;;
14021;SDS011;7086;48.116;11.580;2022-08-04T16:57:38;2.60;;;1.48;;
14021;SDS011;7086;48.116;11.580;2022-08-04T17:03:35;1.10;;;1.10;;
14021;SDS011;7086;48.116;11.580;2022-08-04T17:06:08;1.00;;;0.95;;
14021;SDS011;7086;48.116;11.580;2022-08-04T17:08:39;1.85;;;1.38;;
14021;SDS011;7086;48.116;11.580;2022-08-04T17:11:08;1.20;;;1.08;;
14021;SDS011;7086;48.116;11.580;2022-08-04T17:14:03;0.88;;;0.88;;
14021;SDS011;7086;48.116;11.580;2022-08-04T17:16:47;0.75;;;0.75;;
14021;SDS011;7086;48.116;11.580;2022-08-04T17:19:28;1.33;;;1.30;;
14021;SDS011;7086;48.116;11.580;2022-08-04T17:22:00;1.38;;;1.38;;
14021;SDS011;7086;48.116;11.580;2022-08-04T17:27:45;0.98;;;0.98;;
14021;SDS011;7086;48.116;11.580;2022-08-04T17:30:24;0.95;;;0.85;;
14021;SDS011;7086;48.116;11.580;2022-08-04T17:49:18;1.00;;;1.00;;
14021;SDS011;7086;48.116;11.580;2022-08-04T17:51:48;1.15;;;1.15;;
14021;SDS011;7086;48.116;11.580;2022-08-04T17:54:18;1.10;;;1.10;;
14021;SDS011;7086;48.116;11.580;2022-08-04T17:57:12;1.20;;;1.20;;
14021;SDS011;7086;48.116;11.580;2022-08-04T17:59:41;1.00;;;1.00;;
14021;SDS011;7086;48.116;11.580;2022-08-04T18:02:17;1.65;;;1.55;;
14021;SDS011;7086;48.116;11.580;2022-08-04T18:04:48;1.00;;;1.00;;
14021;SDS011;7086;48.116;11.580;2022-08-04T18:07:18;1.10;;;1.10;;
14021;SDS011;7086;48.116;11.580;2022-08-04T18:09:50;3.15;;;2.97;;
14021;SDS011;7086;48.116;11.580;2022-08-04T18:12:21;2.65;;;1.60;;
14021;SDS011;7086;48.116;11.580;2022-08-04T18:14:50;3.47;;;2.17;;
14021;SDS011;7086;48.116;11.580;2022-08-04T18:17:34;2.20;;;2.10;;
14021;SDS011;7086;48.116;11.580;2022-08-04T18:20:03;2.50;;;2.30;;
14021;SDS011;7086;48.116;11.580;2022-08-04T18:22:34;4.82;;;4.00;;
14021;SDS011;7086;48.116;11.580;2022-08-04T18:25:03;4.95;;;4.45;;
14021;SDS011;7086;48.116;11.580;2022-08-04T18:27:32;2.53;;;2.35;;
14021;SDS011;7086;48.116;11.580;2022-08-04T18:30:00;3.75;;;2.60;;
14021;SDS011;7086;48.116;11.580;2022-08-04T18:32:29;2.30;;;2.10;;
14021;SDS011;7086;48.116;11.580;2022-08-04T18:35:00;1.90;;;1.80;;
14021;SDS011;7086;48.116;11.580;2022-08-04T18:37:28;2.50;;;1.63;;
14021;SDS011;7086;48.116;11.580;2022-08-04T18:39:59;2.15;;;1.95;;
14021;SDS011;7086;48.116;11.580;2022-08-04T18:42:27;2.42;;;1.90;;
14021;SDS011;7086;48.116;11.580;2022-08-04T18:44:55;1.85;;;1.70;;
14021;SDS011;7086;48.116;11.580;2022-08-04T18:47:24;2.83;;;1.92;;
14021;SDS011;7086;48.116;11.580;2022-08-04T18:50:08;2.17;;;1.95;;
14021;SDS011;7086;48.116;11.580;2022-08-04T18:52:36;2.30;;;1.52;;
14021;SDS011;7086;48.116;11.580;2022-08-04T18:55:04;2.08;;;1.80;;
14021;SDS011;7086;48.116;11.580;2022-08-04T18:57:32;2.60;;;1.73;;
14021;SDS011;7086;48.116;11.580;2022-08-04T19:00:00;4.93;;;2.03;;
14021;SDS011;7086;48.116;11.580;2022-08-04T19:02:29;1.88;;;1.73;;
14021;SDS011;7086;48.116;11.580;2022-08-04T19:04:56;2.30;;;2.10;;
14021;SDS011;7086;48.116;11.580;2022-08-04T21:41:11;2.45;;;2.35;;
14021;SDS011;7086;48.116;11.580;2022-08-04T21:44:12;2.55;;;2.38;;
14021;SDS011;7086;48.116;11.580;2022-08-04T23:30:05;2.45;;;2.28;;
14021;SDS011;7086;48.116;11.580;2022-08-04T23:32:45;3.47;;;2.53;;
14021;SDS011;7086;48.116;11.580;2022-08-04T23:35:26;2.95;;;2.55;;
14021;SDS011;7086;48.116;11.580;2022-08-04T23:37:55;2.10;;;2.00;;
14021;SDS011;7086;48.116;11.580;2022-08-04T23:40:23;2.70;;;2.60;;
14021;SDS011;7086;48.116;11.580;2022-08-04T23:46:28;2.20;;;2.10;;
14021;SDS011;7086;48.116;11.580;2022-08-04T23:48:57;2.13;;;2.03;;
14021;SDS011;7086;48.116;11.580;2022-08-04T23:51:40;2.65;;;2.08;;
14021;SDS011;7086;48.116;11.580;2022-08-04T23:54:22;2.65;;;2.40;;
14021;SDS011;7086;48.116;11.580;2022-08-04T23:56:52;2.50;;;2.38;;
14021;SDS011;7086;48.116;11.580;2022-08-04T23:59:36;2.88;;;2.67;;
